DLH422 EDDF-KBOS
Flight info
| Callsign | DLH422 |
|---|---|
| Flight time | N/A |
| Altitude | 39000 |
| Route | ULKIG Y180 DIK UN857 TOLVU DCT RAPOR DCT GIMER DCT ESTOC UT300 SENLO UN502 JSY DCT MUREL DCT LARLA DCT RATKA/M085F390 DCT SOMAX DCT 49N020W 47N030W 45N040W 42N050W 42N060W DCT DOVEY/N0496F390 DCT FERNZ OOSHN5 |
| Aircraft | A359/H-SDE2E3GHIJ3J4J5LM1ORWXY/LB1D1 |
Departure
| Time | 2026-05-08 03:32 |
|---|---|
| Airport | Frankfurt Main Airport (EDDF) |
Arrival
| Time | N/A |
|---|---|
| Airport | Boston Logan International Airport (KBOS) |
| Time | Latitude | Longitude | Altitude | Speed | Heading |
|---|---|---|---|---|---|
| 2026-05-08 02:26 | 50.04601 | 8.57072 | 369 ft | 0 kts | 60° |
| 2026-05-08 03:05 | 50.04603 | 8.57075 | 368 ft | 2 kts | 60° |
| 2026-05-08 03:05 | 50.04592 | 8.57040 | 370 ft | 4 kts | 77° |
| 2026-05-08 03:05 | 50.04589 | 8.57002 | 368 ft | 4 kts | 99° |
| 2026-05-08 03:05 | 50.04596 | 8.56965 | 368 ft | 4 kts | 124° |
| 2026-05-08 03:06 | 50.04611 | 8.56938 | 375 ft | 4 kts | 148° |
| 2026-05-08 03:06 | 50.04633 | 8.56922 | 371 ft | 4 kts | 176° |
| 2026-05-08 03:06 | 50.04643 | 8.56921 | 369 ft | 3 kts | 192° |
| 2026-05-08 03:06 | 50.04618 | 8.56913 | 368 ft | 4 kts | 192° |
| 2026-05-08 03:07 | 50.04592 | 8.56905 | 371 ft | 4 kts | 192° |
| 2026-05-08 03:07 | 50.04566 | 8.56897 | 372 ft | 4 kts | 192° |
| 2026-05-08 03:07 | 50.04540 | 8.56888 | 368 ft | 5 kts | 192° |
| 2026-05-08 03:07 | 50.04506 | 8.56877 | 368 ft | 9 kts | 192° |
| 2026-05-08 03:08 | 50.04478 | 8.56868 | 368 ft | 4 kts | 192° |
| 2026-05-08 03:08 | 50.04452 | 8.56859 | 370 ft | 4 kts | 192° |
| 2026-05-08 03:08 | 50.04445 | 8.56857 | 371 ft | 0 kts | 192° |
| 2026-05-08 03:12 | 50.04443 | 8.56856 | 372 ft | 1 kts | 192° |
| 2026-05-08 03:12 | 50.04430 | 8.56851 | 373 ft | 4 kts | 193° |
| 2026-05-08 03:13 | 50.04389 | 8.56836 | 368 ft | 8 kts | 193° |
| 2026-05-08 03:13 | 50.04379 | 8.56832 | 371 ft | 0 kts | 193° |
| 2026-05-08 03:13 | 50.04389 | 8.56846 | 373 ft | 2 kts | 278° |
| 2026-05-08 03:13 | 50.04389 | 8.56852 | 372 ft | 0 kts | 301° |
| 2026-05-08 03:14 | 50.04394 | 8.56839 | 368 ft | 3 kts | 299° |
| 2026-05-08 03:14 | 50.04409 | 8.56791 | 372 ft | 7 kts | 294° |
| 2026-05-08 03:14 | 50.04430 | 8.56696 | 373 ft | 3 kts | 282° |
| 2026-05-08 03:14 | 50.04434 | 8.56635 | 369 ft | 8 kts | 273° |
| 2026-05-08 03:15 | 50.04431 | 8.56556 | 373 ft | 7 kts | 261° |
| 2026-05-08 03:15 | 50.04411 | 8.56458 | 374 ft | 12 kts | 247° |
| 2026-05-08 03:15 | 50.04368 | 8.56338 | 375 ft | 13 kts | 238° |
| 2026-05-08 03:15 | 50.04316 | 8.56207 | 371 ft | 16 kts | 239° |
| 2026-05-08 03:16 | 50.04261 | 8.56035 | 375 ft | 20 kts | 246° |
| 2026-05-08 03:16 | 50.04207 | 8.55815 | 370 ft | 23 kts | 250° |
| 2026-05-08 03:16 | 50.04148 | 8.55563 | 372 ft | 26 kts | 250° |
| 2026-05-08 03:16 | 50.04082 | 8.55282 | 373 ft | 29 kts | 250° |
| 2026-05-08 03:17 | 50.04009 | 8.54977 | 373 ft | 32 kts | 250° |
| 2026-05-08 03:17 | 50.03930 | 8.54645 | 370 ft | 34 kts | 250° |
| 2026-05-08 03:17 | 50.03893 | 8.54486 | 373 ft | 0 kts | 250° |
| 2026-05-08 03:17 | 50.03878 | 8.54426 | 375 ft | 9 kts | 247° |
| 2026-05-08 03:18 | 50.03836 | 8.54316 | 375 ft | 14 kts | 236° |
| 2026-05-08 03:18 | 50.03786 | 8.54161 | 371 ft | 18 kts | 248° |
| 2026-05-08 03:18 | 50.03736 | 8.53962 | 373 ft | 22 kts | 250° |
| 2026-05-08 03:18 | 50.03680 | 8.53725 | 371 ft | 25 kts | 250° |
| 2026-05-08 03:19 | 50.03615 | 8.53457 | 371 ft | 28 kts | 248° |
| 2026-05-08 03:19 | 50.03575 | 8.53306 | 372 ft | 8 kts | 246° |
| 2026-05-08 03:19 | 50.03542 | 8.53205 | 372 ft | 13 kts | 237° |
| 2026-05-08 03:19 | 50.03472 | 8.53092 | 372 ft | 16 kts | 220° |
| 2026-05-08 03:20 | 50.03400 | 8.52933 | 372 ft | 20 kts | 245° |
| 2026-05-08 03:20 | 50.03353 | 8.52808 | 372 ft | 10 kts | 230° |
| 2026-05-08 03:20 | 50.03313 | 8.52750 | 368 ft | 0 kts | 217° |
| 2026-05-08 03:20 | 50.03319 | 8.52761 | 373 ft | 2 kts | 210° |
| 2026-05-08 03:21 | 50.03330 | 8.52764 | 373 ft | 0 kts | 142° |
| 2026-05-08 03:21 | 50.03325 | 8.52770 | 372 ft | 2 kts | 141° |
| 2026-05-08 03:21 | 50.03319 | 8.52780 | 370 ft | 2 kts | 147° |
| 2026-05-08 03:21 | 50.03324 | 8.52776 | 371 ft | 1 kts | 93° |
| 2026-05-08 03:22 | 50.03322 | 8.52804 | 369 ft | 8 kts | 94° |
| 2026-05-08 03:22 | 50.03329 | 8.52925 | 371 ft | 15 kts | 77° |
| 2026-05-08 03:22 | 50.03374 | 8.53089 | 371 ft | 18 kts | 64° |
| 2026-05-08 03:22 | 50.03397 | 8.53179 | 371 ft | 0 kts | 70° |
| 2026-05-08 03:23 | 50.03399 | 8.53189 | 370 ft | 2 kts | 72° |
| 2026-05-08 03:23 | 50.03407 | 8.53241 | 368 ft | 8 kts | 79° |
| 2026-05-08 03:23 | 50.03409 | 8.53353 | 366 ft | 13 kts | 96° |
| 2026-05-08 03:23 | 50.03378 | 8.53497 | 367 ft | 12 kts | 118° |
| 2026-05-08 03:24 | 50.03332 | 8.53607 | 366 ft | 1 kts | 120° |
| 2026-05-08 03:24 | 50.03321 | 8.53640 | 364 ft | 0 kts | 114° |
| 2026-05-08 03:24 | 50.03324 | 8.53631 | 363 ft | 0 kts | 95° |
| 2026-05-08 03:24 | 50.03323 | 8.53642 | 364 ft | 3 kts | 94° |
| 2026-05-08 03:25 | 50.03324 | 8.53698 | 361 ft | 8 kts | 85° |
| 2026-05-08 03:25 | 50.03336 | 8.53785 | 365 ft | 12 kts | 72° |
| 2026-05-08 03:25 | 50.03362 | 8.53890 | 365 ft | 0 kts | 68° |
| 2026-05-08 03:26 | 50.03364 | 8.53895 | 365 ft | 0 kts | 68° |
| 2026-05-08 03:26 | 50.03370 | 8.53920 | 363 ft | 5 kts | 69° |
| 2026-05-08 03:26 | 50.03387 | 8.53988 | 363 ft | 9 kts | 69° |
| 2026-05-08 03:27 | 50.03414 | 8.54100 | 363 ft | 13 kts | 69° |
| 2026-05-08 03:27 | 50.03450 | 8.54245 | 367 ft | 16 kts | 69° |
| 2026-05-08 03:27 | 50.03470 | 8.54325 | 365 ft | 15 kts | 69° |
| 2026-05-08 03:28 | 50.03503 | 8.54456 | 365 ft | 15 kts | 69° |
| 2026-05-08 03:28 | 50.03518 | 8.54519 | 365 ft | 0 kts | 69° |
| 2026-05-08 03:31 | 50.03582 | 8.54779 | 366 ft | 57 kts | 70° |
| 2026-05-08 03:32 | 50.03785 | 8.55637 | 365 ft | 111 kts | 70° |
| 2026-05-08 03:32 | 50.04109 | 8.57004 | 375 ft | 157 kts | 70° |
| 2026-05-08 03:32 | 50.04465 | 8.58655 | 916 ft | 155 kts | 73° |
| 2026-05-08 03:32 | 50.04787 | 8.60294 | 1299 ft | 163 kts | 72° |
| 2026-05-08 03:33 | 50.05158 | 8.61889 | 1340 ft | 149 kts | 70° |
| 2026-05-08 03:33 | 50.05613 | 8.63452 | 1462 ft | 173 kts | 57° |
| 2026-05-08 03:33 | 50.06664 | 8.64422 | 1731 ft | 188 kts | 11° |
| 2026-05-08 03:33 | 50.07964 | 8.64050 | 2079 ft | 204 kts | 333° |
| 2026-05-08 03:34 | 50.08974 | 8.62363 | 2223 ft | 231 kts | 296° |
| 2026-05-08 03:34 | 50.09198 | 8.59807 | 2576 ft | 247 kts | 261° |
| 2026-05-08 03:34 | 50.08474 | 8.57383 | 3205 ft | 251 kts | 232° |
| 2026-05-08 03:34 | 50.07215 | 8.55501 | 3786 ft | 248 kts | 221° |
| 2026-05-08 03:35 | 50.05867 | 8.53943 | 3845 ft | 237 kts | 217° |
| 2026-05-08 03:35 | 50.04533 | 8.52526 | 3744 ft | 227 kts | 216° |
| 2026-05-08 03:35 | 50.03456 | 8.50831 | 3796 ft | 217 kts | 238° |
| 2026-05-08 03:35 | 50.02758 | 8.48852 | 3986 ft | 228 kts | 248° |
| 2026-05-08 03:36 | 50.02180 | 8.46410 | 4230 ft | 248 kts | 255° |
| 2026-05-08 03:36 | 50.01702 | 8.43767 | 4704 ft | 258 kts | 257° |
| 2026-05-08 03:36 | 50.01251 | 8.41046 | 5311 ft | 262 kts | 257° |
| 2026-05-08 03:36 | 50.00780 | 8.38281 | 6003 ft | 265 kts | 257° |
| 2026-05-08 03:37 | 50.00282 | 8.35515 | 6638 ft | 268 kts | 256° |
| 2026-05-08 03:37 | 49.99750 | 8.32726 | 7364 ft | 269 kts | 255° |
| 2026-05-08 03:37 | 49.99196 | 8.29929 | 8071 ft | 272 kts | 255° |
| 2026-05-08 03:37 | 49.98625 | 8.27105 | 8768 ft | 275 kts | 254° |
| 2026-05-08 03:38 | 49.98042 | 8.24252 | 9526 ft | 278 kts | 254° |
| 2026-05-08 03:38 | 49.97452 | 8.21371 | 10227 ft | 282 kts | 254° |
| 2026-05-08 03:38 | 49.96846 | 8.18397 | 10596 ft | 298 kts | 254° |
| 2026-05-08 03:38 | 49.96210 | 8.15233 | 10870 ft | 316 kts | 255° |
| 2026-05-08 03:39 | 49.95541 | 8.11877 | 11147 ft | 334 kts | 254° |
| 2026-05-08 03:39 | 49.94832 | 8.08349 | 11433 ft | 350 kts | 254° |
| 2026-05-08 03:39 | 49.94084 | 8.04681 | 11767 ft | 363 kts | 253° |
| 2026-05-08 03:39 | 49.93300 | 8.00904 | 12322 ft | 369 kts | 253° |
| 2026-05-08 03:40 | 49.92509 | 7.97125 | 12934 ft | 373 kts | 253° |
| 2026-05-08 03:40 | 49.91697 | 7.93244 | 13583 ft | 377 kts | 253° |
| 2026-05-08 03:40 | 49.90886 | 7.89351 | 14200 ft | 380 kts | 253° |
| 2026-05-08 03:40 | 49.90073 | 7.85441 | 14769 ft | 383 kts | 253° |
| 2026-05-08 03:41 | 49.89255 | 7.81499 | 15358 ft | 385 kts | 253° |
| 2026-05-08 03:41 | 49.88450 | 7.77519 | 15934 ft | 388 kts | 256° |
| 2026-05-08 03:41 | 49.87912 | 7.73419 | 16509 ft | 390 kts | 264° |
| 2026-05-08 03:41 | 49.87861 | 7.69191 | 17079 ft | 394 kts | 276° |
| 2026-05-08 03:42 | 49.88258 | 7.64979 | 17629 ft | 397 kts | 281° |
| 2026-05-08 03:42 | 49.88840 | 7.60777 | 18208 ft | 400 kts | 284° |
| 2026-05-08 03:42 | 49.89511 | 7.56564 | 18737 ft | 403 kts | 284° |
| 2026-05-08 03:42 | 49.90211 | 7.52339 | 19274 ft | 406 kts | 285° |
| 2026-05-08 03:43 | 49.90904 | 7.48130 | 19801 ft | 409 kts | 284° |
| 2026-05-08 03:43 | 49.91603 | 7.43784 | 20354 ft | 412 kts | 284° |
| 2026-05-08 03:43 | 49.92284 | 7.39447 | 20892 ft | 414 kts | 284° |
| 2026-05-08 03:43 | 49.92955 | 7.35093 | 21423 ft | 417 kts | 284° |
| 2026-05-08 03:44 | 49.93629 | 7.30823 | 22271 ft | 412 kts | 284° |
| 2026-05-08 03:44 | 49.94302 | 7.26483 | 22595 ft | 420 kts | 284° |
| 2026-05-08 03:44 | 49.94972 | 7.22021 | 23002 ft | 425 kts | 283° |
| 2026-05-08 03:44 | 49.95638 | 7.17522 | 23515 ft | 429 kts | 283° |
| 2026-05-08 03:45 | 49.96306 | 7.12995 | 23978 ft | 432 kts | 283° |
| 2026-05-08 03:45 | 49.96980 | 7.08435 | 24406 ft | 435 kts | 283° |
| 2026-05-08 03:45 | 49.97662 | 7.03839 | 24857 ft | 437 kts | 283° |
| 2026-05-08 03:45 | 49.98346 | 6.99233 | 25296 ft | 440 kts | 283° |
| 2026-05-08 03:46 | 49.99026 | 6.94591 | 25699 ft | 442 kts | 282° |
| 2026-05-08 03:46 | 49.99440 | 6.89844 | 26089 ft | 444 kts | 274° |
| 2026-05-08 03:46 | 49.99473 | 6.85035 | 26559 ft | 446 kts | 270° |
| 2026-05-08 03:46 | 49.99396 | 6.80204 | 26982 ft | 448 kts | 269° |
| 2026-05-08 03:47 | 49.99264 | 6.75361 | 27395 ft | 451 kts | 268° |
| 2026-05-08 03:47 | 49.99106 | 6.70481 | 27809 ft | 453 kts | 268° |
| 2026-05-08 03:47 | 49.98940 | 6.65576 | 28204 ft | 456 kts | 268° |
| 2026-05-08 03:47 | 49.98728 | 6.60647 | 28562 ft | 459 kts | 264° |
| 2026-05-08 03:48 | 49.98170 | 6.55760 | 28938 ft | 461 kts | 257° |
| 2026-05-08 03:48 | 49.97174 | 6.51018 | 29327 ft | 462 kts | 250° |
| 2026-05-08 03:48 | 49.95968 | 6.46380 | 29706 ft | 464 kts | 249° |
| 2026-05-08 03:48 | 49.94698 | 6.41768 | 30021 ft | 467 kts | 248° |
| 2026-05-08 03:49 | 49.93388 | 6.37142 | 30316 ft | 469 kts | 248° |
| 2026-05-08 03:49 | 49.92067 | 6.32520 | 30752 ft | 467 kts | 248° |
| 2026-05-08 03:49 | 49.90753 | 6.27923 | 31197 ft | 465 kts | 248° |
| 2026-05-08 03:49 | 49.89444 | 6.23354 | 31618 ft | 463 kts | 247° |
| 2026-05-08 03:50 | 49.88132 | 6.18838 | 32012 ft | 461 kts | 248° |
| 2026-05-08 03:50 | 49.86772 | 6.14309 | 32343 ft | 461 kts | 244° |
| 2026-05-08 03:50 | 49.85128 | 6.10043 | 32708 ft | 461 kts | 238° |
| 2026-05-08 03:50 | 49.83337 | 6.05942 | 33123 ft | 458 kts | 238° |
| 2026-05-08 03:51 | 49.81520 | 6.01909 | 33491 ft | 457 kts | 237° |
| 2026-05-08 03:51 | 49.79706 | 5.97952 | 33810 ft | 456 kts | 237° |
| 2026-05-08 03:51 | 49.77840 | 5.93913 | 34144 ft | 455 kts | 237° |
| 2026-05-08 03:51 | 49.76040 | 5.89968 | 34386 ft | 454 kts | 239° |
| 2026-05-08 03:52 | 49.74437 | 5.85692 | 34630 ft | 453 kts | 246° |
| 2026-05-08 03:52 | 49.73210 | 5.81259 | 34770 ft | 455 kts | 250° |
| 2026-05-08 03:52 | 49.72099 | 5.76683 | 34927 ft | 456 kts | 252° |
| 2026-05-08 03:52 | 49.71030 | 5.72067 | 35148 ft | 456 kts | 252° |
| 2026-05-08 03:53 | 49.69976 | 5.67444 | 35339 ft | 456 kts | 252° |
| 2026-05-08 03:53 | 49.68923 | 5.62830 | 35528 ft | 456 kts | 252° |
| 2026-05-08 03:53 | 49.67861 | 5.58209 | 35712 ft | 456 kts | 252° |
| 2026-05-08 03:53 | 49.66790 | 5.53595 | 35907 ft | 457 kts | 252° |
| 2026-05-08 03:54 | 49.65709 | 5.48979 | 36063 ft | 457 kts | 251° |
| 2026-05-08 03:54 | 49.64622 | 5.44361 | 36238 ft | 458 kts | 251° |
| 2026-05-08 03:54 | 49.63530 | 5.39744 | 36395 ft | 458 kts | 251° |
| 2026-05-08 03:54 | 49.62436 | 5.35116 | 36568 ft | 459 kts | 252° |
| 2026-05-08 03:55 | 49.61394 | 5.30471 | 36738 ft | 459 kts | 253° |
| 2026-05-08 03:55 | 49.60396 | 5.25789 | 36895 ft | 459 kts | 253° |
| 2026-05-08 03:55 | 49.59427 | 5.21159 | 37037 ft | 460 kts | 253° |
| 2026-05-08 03:55 | 49.58488 | 5.16443 | 37204 ft | 460 kts | 255° |
| 2026-05-08 03:56 | 49.57647 | 5.11689 | 37338 ft | 461 kts | 256° |
| 2026-05-08 03:56 | 49.56844 | 5.06910 | 37478 ft | 461 kts | 257° |
| 2026-05-08 03:56 | 49.56042 | 5.02124 | 37624 ft | 461 kts | 256° |
| 2026-05-08 03:56 | 49.55227 | 4.97348 | 37776 ft | 461 kts | 256° |
| 2026-05-08 03:57 | 49.54397 | 4.92584 | 37911 ft | 461 kts | 256° |
| 2026-05-08 03:57 | 49.53551 | 4.87816 | 38035 ft | 462 kts | 256° |
| 2026-05-08 03:57 | 49.52697 | 4.83053 | 38160 ft | 462 kts | 256° |
| 2026-05-08 03:57 | 49.51836 | 4.78287 | 38281 ft | 462 kts | 256° |
| 2026-05-08 03:58 | 49.50972 | 4.73526 | 38414 ft | 462 kts | 256° |
| 2026-05-08 03:58 | 49.50107 | 4.68769 | 38536 ft | 462 kts | 256° |
| 2026-05-08 03:58 | 49.49239 | 4.64005 | 38654 ft | 462 kts | 255° |
| 2026-05-08 03:58 | 49.48372 | 4.59250 | 38760 ft | 462 kts | 255° |
| 2026-05-08 03:59 | 49.47501 | 4.54491 | 38837 ft | 462 kts | 255° |
| 2026-05-08 03:59 | 49.45754 | 4.44968 | 38996 ft | 462 kts | 255° |
| 2026-05-08 04:00 | 49.44002 | 4.35456 | 39049 ft | 463 kts | 255° |
| 2026-05-08 04:00 | 49.42237 | 4.25929 | 39053 ft | 463 kts | 255° |
| 2026-05-08 04:01 | 49.40468 | 4.16426 | 39054 ft | 463 kts | 255° |
| 2026-05-08 04:01 | 49.38718 | 4.06946 | 39216 ft | 459 kts | 257° |
| 2026-05-08 04:01 | 49.38185 | 4.02129 | 39449 ft | 455 kts | 266° |
| 2026-05-08 04:02 | 49.37687 | 3.97319 | 39303 ft | 459 kts | 256° |
| 2026-05-08 04:02 | 49.35854 | 3.87877 | 39306 ft | 462 kts | 255° |
| 2026-05-08 04:03 | 49.34210 | 3.78403 | 39391 ft | 463 kts | 263° |
| 2026-05-08 04:03 | 49.33084 | 3.68579 | 39059 ft | 468 kts | 265° |
| 2026-05-08 04:03 | 49.32561 | 3.63728 | 38971 ft | 468 kts | 265° |
| 2026-05-08 04:04 | 49.31325 | 3.53882 | 38904 ft | 466 kts | 263° |
| 2026-05-08 04:04 | 49.29944 | 3.44251 | 38807 ft | 465 kts | 262° |
| 2026-05-08 04:05 | 49.28505 | 3.34588 | 38685 ft | 466 kts | 262° |
| 2026-05-08 04:05 | 49.27064 | 3.24921 | 38557 ft | 466 kts | 262° |
| 2026-05-08 04:06 | 49.25623 | 3.15254 | 38423 ft | 466 kts | 262° |
| 2026-05-08 04:06 | 49.24176 | 3.05571 | 38282 ft | 466 kts | 262° |
| 2026-05-08 04:07 | 49.22726 | 2.95920 | 38196 ft | 466 kts | 262° |
| 2026-05-08 04:07 | 49.21267 | 2.86265 | 38098 ft | 466 kts | 262° |
| 2026-05-08 04:08 | 49.19794 | 2.76603 | 37983 ft | 466 kts | 262° |
| 2026-05-08 04:08 | 49.18312 | 2.66955 | 37899 ft | 466 kts | 262° |
| 2026-05-08 04:09 | 49.16823 | 2.57320 | 37826 ft | 466 kts | 262° |
| 2026-05-08 04:09 | 49.15326 | 2.47670 | 37736 ft | 466 kts | 261° |
| 2026-05-08 04:10 | 49.13901 | 2.37906 | 37798 ft | 464 kts | 266° |
| 2026-05-08 04:10 | 49.13413 | 2.33011 | 37642 ft | 467 kts | 266° |
| 2026-05-08 04:10 | 49.12949 | 2.28095 | 37533 ft | 468 kts | 266° |
| 2026-05-08 04:11 | 49.12501 | 2.23218 | 37304 ft | 460 kts | 266° |
| 2026-05-08 04:11 | 49.12064 | 2.18443 | 36527 ft | 460 kts | 266° |
| 2026-05-08 04:11 | 49.11611 | 2.13578 | 36124 ft | 459 kts | 266° |
| 2026-05-08 04:11 | 49.11168 | 2.08796 | 36009 ft | 462 kts | 266° |
| 2026-05-08 04:12 | 49.10289 | 1.98963 | 35972 ft | 465 kts | 268° |
| 2026-05-08 04:12 | 49.09567 | 1.89135 | 35997 ft | 467 kts | 268° |
| 2026-05-08 04:13 | 49.08858 | 1.79354 | 36068 ft | 467 kts | 268° |
| 2026-05-08 04:13 | 49.08106 | 1.69524 | 36149 ft | 467 kts | 268° |
| 2026-05-08 04:14 | 49.07329 | 1.59685 | 36249 ft | 467 kts | 268° |
| 2026-05-08 04:14 | 49.06542 | 1.49865 | 36287 ft | 467 kts | 268° |
| 2026-05-08 04:15 | 49.05881 | 1.41689 | 36347 ft | 467 kts | 268° |
| 2026-05-08 04:15 | 49.05079 | 1.31873 | 36414 ft | 467 kts | 268° |
| 2026-05-08 04:16 | 49.04371 | 1.22041 | 36613 ft | 465 kts | 273° |
| 2026-05-08 04:16 | 49.04529 | 1.12156 | 36475 ft | 469 kts | 277° |
| 2026-05-08 04:17 | 49.05501 | 0.82353 | 36637 ft | 467 kts | 277° |
| 2026-05-08 04:17 | 49.06551 | 0.42805 | 36735 ft | 466 kts | 277° |
| 2026-05-08 04:18 | 49.07467 | 0.03272 | 36815 ft | 466 kts | 277° |
| 2026-05-08 04:18 | 49.07867 | -0.16347 | 37018 ft | 461 kts | 276° |
| 2026-05-08 04:18 | 49.08253 | -0.35919 | 36972 ft | 462 kts | 276° |
| 2026-05-08 04:19 | 49.08897 | -0.75267 | 36942 ft | 464 kts | 276° |
| 2026-05-08 04:19 | 49.09430 | -1.14618 | 37053 ft | 463 kts | 278° |
| 2026-05-08 04:20 | 49.15176 | -1.53108 | 37046 ft | 465 kts | 288° |
| 2026-05-08 04:20 | 49.21225 | -1.91516 | 37064 ft | 465 kts | 288° |
| 2026-05-08 04:21 | 49.25101 | -2.30473 | 37070 ft | 463 kts | 281° |
| 2026-05-08 04:21 | 49.27812 | -2.69689 | 37123 ft | 462 kts | 281° |
| 2026-05-08 04:22 | 49.30386 | -3.08836 | 37175 ft | 461 kts | 281° |
| 2026-05-08 04:22 | 49.32822 | -3.47931 | 37241 ft | 460 kts | 281° |
| 2026-05-08 04:23 | 49.34202 | -3.86954 | 37274 ft | 458 kts | 278° |
| 2026-05-08 04:23 | 49.35250 | -4.25961 | 37304 ft | 457 kts | 277° |
| 2026-05-08 04:24 | 49.36136 | -4.64320 | 37610 ft | 448 kts | 277° |
| 2026-05-08 04:24 | 49.36524 | -4.83537 | 38283 ft | 430 kts | 276° |
| 2026-05-08 04:24 | 49.36598 | -4.91691 | 39466 ft | 399 kts | 275° |
| 2026-05-08 04:25 | 49.36613 | -4.95921 | 39616 ft | 394 kts | 275° |
| 2026-05-08 04:25 | 49.36665 | -5.00115 | 39590 ft | 393 kts | 275° |
| 2026-05-08 04:25 | 49.36738 | -5.08510 | 39480 ft | 393 kts | 276° |
| 2026-05-08 04:26 | 49.36845 | -5.16896 | 39382 ft | 393 kts | 276° |
| 2026-05-08 04:26 | 49.36980 | -5.25272 | 39280 ft | 393 kts | 276° |
| 2026-05-08 04:27 | 49.37123 | -5.33680 | 39182 ft | 394 kts | 276° |
| 2026-05-08 04:27 | 49.37260 | -5.42083 | 39081 ft | 394 kts | 276° |
| 2026-05-08 04:28 | 49.37389 | -5.50512 | 38983 ft | 395 kts | 276° |
| 2026-05-08 04:28 | 49.37514 | -5.58936 | 38891 ft | 396 kts | 276° |
| 2026-05-08 04:29 | 49.37633 | -5.67409 | 38799 ft | 397 kts | 276° |
| 2026-05-08 04:29 | 49.37745 | -5.75893 | 38714 ft | 398 kts | 276° |
| 2026-05-08 04:30 | 49.37930 | -5.89229 | 38534 ft | 401 kts | 276° |
| 2026-05-08 04:30 | 49.38114 | -6.04267 | 38335 ft | 404 kts | 276° |
| 2026-05-08 04:30 | 49.38205 | -6.12825 | 38192 ft | 402 kts | 275° |
| 2026-05-08 04:31 | 49.38263 | -6.21436 | 38081 ft | 404 kts | 275° |
| 2026-05-08 04:31 | 49.38331 | -6.30083 | 37993 ft | 407 kts | 275° |
| 2026-05-08 04:32 | 49.38409 | -6.38803 | 37906 ft | 410 kts | 275° |
| 2026-05-08 04:32 | 49.38481 | -6.47573 | 37823 ft | 413 kts | 275° |
| 2026-05-08 04:33 | 49.38545 | -6.56413 | 37745 ft | 416 kts | 275° |
| 2026-05-08 04:33 | 49.38602 | -6.65314 | 37674 ft | 419 kts | 275° |
| 2026-05-08 04:34 | 49.38654 | -6.74298 | 37574 ft | 423 kts | 275° |
| 2026-05-08 04:34 | 49.38702 | -6.83360 | 37494 ft | 426 kts | 275° |
| 2026-05-08 04:35 | 49.38742 | -6.92503 | 37414 ft | 429 kts | 275° |
| 2026-05-08 04:35 | 49.38754 | -6.97039 | 37295 ft | 425 kts | 275° |
| 2026-05-08 04:35 | 49.38764 | -7.01591 | 37223 ft | 427 kts | 275° |
| 2026-05-08 04:36 | 49.38856 | -7.10743 | 37240 ft | 430 kts | 279° |
| 2026-05-08 04:36 | 49.39275 | -7.15276 | 37353 ft | 429 kts | 285° |
| 2026-05-08 04:36 | 49.39867 | -7.19776 | 37305 ft | 431 kts | 285° |
| 2026-05-08 04:37 | 49.41155 | -7.28815 | 37206 ft | 435 kts | 286° |
| 2026-05-08 04:37 | 49.42481 | -7.37929 | 37115 ft | 439 kts | 286° |
| 2026-05-08 04:38 | 49.43790 | -7.47071 | 37024 ft | 443 kts | 285° |
| 2026-05-08 04:38 | 49.45104 | -7.56348 | 36919 ft | 446 kts | 285° |
| 2026-05-08 04:39 | 49.46427 | -7.65781 | 36779 ft | 451 kts | 285° |
| 2026-05-08 04:39 | 49.47742 | -7.75224 | 36776 ft | 452 kts | 285° |
| 2026-05-08 04:40 | 49.49042 | -7.84687 | 36796 ft | 452 kts | 285° |
| 2026-05-08 04:40 | 49.50319 | -7.94096 | 36850 ft | 453 kts | 285° |
| 2026-05-08 04:41 | 49.51574 | -8.03591 | 36845 ft | 453 kts | 283° |
| 2026-05-08 04:41 | 49.52550 | -8.13163 | 36931 ft | 452 kts | 281° |
| 2026-05-08 04:42 | 49.53441 | -8.22750 | 36955 ft | 453 kts | 281° |
| 2026-05-08 04:42 | 49.54367 | -8.32338 | 36967 ft | 453 kts | 282° |
| 2026-05-08 04:43 | 49.55313 | -8.41935 | 36990 ft | 454 kts | 282° |
| 2026-05-08 04:43 | 49.56261 | -8.51566 | 37013 ft | 454 kts | 281° |
| 2026-05-08 04:44 | 49.57195 | -8.61123 | 37030 ft | 455 kts | 281° |
| 2026-05-08 04:44 | 49.58123 | -8.70752 | 37053 ft | 455 kts | 281° |
| 2026-05-08 04:45 | 49.59049 | -8.80404 | 37066 ft | 455 kts | 281° |
| 2026-05-08 04:45 | 49.59967 | -8.90072 | 37083 ft | 456 kts | 281° |
| 2026-05-08 04:46 | 49.60877 | -8.99745 | 37093 ft | 456 kts | 281° |
| 2026-05-08 04:46 | 49.61775 | -9.09425 | 37119 ft | 457 kts | 281° |
| 2026-05-08 04:47 | 49.62667 | -9.19127 | 37143 ft | 457 kts | 281° |
| 2026-05-08 04:47 | 49.63552 | -9.28827 | 37160 ft | 457 kts | 281° |
| 2026-05-08 04:48 | 49.64436 | -9.38553 | 37168 ft | 458 kts | 281° |
| 2026-05-08 04:48 | 49.65308 | -9.48284 | 37181 ft | 458 kts | 280° |
| 2026-05-08 04:49 | 49.66173 | -9.58023 | 37205 ft | 458 kts | 280° |
| 2026-05-08 04:49 | 49.67023 | -9.67710 | 37221 ft | 458 kts | 280° |
| 2026-05-08 04:50 | 49.67875 | -9.77527 | 37227 ft | 459 kts | 280° |
| 2026-05-08 04:50 | 49.68711 | -9.87234 | 37251 ft | 459 kts | 280° |
| 2026-05-08 04:51 | 49.69544 | -9.97021 | 37259 ft | 459 kts | 280° |
| 2026-05-08 04:51 | 49.70354 | -10.06622 | 37277 ft | 460 kts | 280° |
| 2026-05-08 04:52 | 49.71174 | -10.16408 | 37291 ft | 460 kts | 279° |
| 2026-05-08 04:52 | 49.71986 | -10.26221 | 37300 ft | 460 kts | 279° |
| 2026-05-08 04:53 | 49.72789 | -10.36027 | 37315 ft | 460 kts | 279° |
| 2026-05-08 04:53 | 49.73586 | -10.45858 | 37322 ft | 461 kts | 279° |
| 2026-05-08 04:54 | 49.74369 | -10.55683 | 37356 ft | 461 kts | 279° |
| 2026-05-08 04:54 | 49.75143 | -10.65513 | 37371 ft | 461 kts | 279° |
| 2026-05-08 04:55 | 49.75913 | -10.75362 | 37353 ft | 461 kts | 279° |
| 2026-05-08 04:55 | 49.76675 | -10.85215 | 37386 ft | 461 kts | 279° |
| 2026-05-08 04:56 | 49.77428 | -10.95076 | 37391 ft | 462 kts | 279° |
| 2026-05-08 04:56 | 49.78175 | -11.04941 | 37398 ft | 462 kts | 279° |
| 2026-05-08 04:57 | 49.78915 | -11.14755 | 37415 ft | 462 kts | 278° |
| 2026-05-08 04:57 | 49.79648 | -11.24640 | 37417 ft | 462 kts | 278° |
| 2026-05-08 04:58 | 49.80369 | -11.34530 | 37429 ft | 462 kts | 278° |
| 2026-05-08 04:58 | 49.81083 | -11.44430 | 37434 ft | 463 kts | 278° |
| 2026-05-08 04:59 | 49.81789 | -11.54329 | 37445 ft | 463 kts | 278° |
| 2026-05-08 04:59 | 49.82488 | -11.64241 | 37460 ft | 463 kts | 278° |
| 2026-05-08 05:00 | 49.83178 | -11.74155 | 37462 ft | 463 kts | 278° |
| 2026-05-08 05:00 | 49.83861 | -11.84076 | 37474 ft | 463 kts | 278° |
| 2026-05-08 05:01 | 49.84534 | -11.94004 | 37476 ft | 464 kts | 278° |
| 2026-05-08 05:01 | 49.85086 | -12.02261 | 37478 ft | 464 kts | 278° |
| 2026-05-08 05:02 | 49.85852 | -12.13822 | 37484 ft | 464 kts | 278° |
| 2026-05-08 05:02 | 49.86502 | -12.23771 | 37511 ft | 464 kts | 278° |
| 2026-05-08 05:03 | 49.87141 | -12.33719 | 37518 ft | 464 kts | 278° |
| 2026-05-08 05:03 | 49.87668 | -12.42007 | 37527 ft | 464 kts | 277° |
| 2026-05-08 05:04 | 49.88293 | -12.51971 | 37539 ft | 464 kts | 277° |
| 2026-05-08 05:04 | 49.88910 | -12.61935 | 37552 ft | 464 kts | 277° |
| 2026-05-08 05:05 | 49.89518 | -12.71907 | 37558 ft | 464 kts | 277° |
| 2026-05-08 05:05 | 49.90119 | -12.81894 | 37553 ft | 465 kts | 277° |
| 2026-05-08 05:06 | 49.90711 | -12.91883 | 37560 ft | 465 kts | 277° |
| 2026-05-08 05:06 | 49.91294 | -13.01870 | 37559 ft | 465 kts | 277° |
| 2026-05-08 05:07 | 49.91870 | -13.11858 | 37564 ft | 465 kts | 277° |
| 2026-05-08 05:07 | 49.92433 | -13.21813 | 37566 ft | 466 kts | 277° |
| 2026-05-08 05:08 | 49.92991 | -13.31819 | 37572 ft | 466 kts | 277° |
| 2026-05-08 05:08 | 49.93541 | -13.41843 | 37577 ft | 466 kts | 277° |
| 2026-05-08 05:09 | 49.94083 | -13.51867 | 37586 ft | 466 kts | 277° |
| 2026-05-08 05:09 | 49.94617 | -13.61884 | 37591 ft | 466 kts | 277° |
| 2026-05-08 05:10 | 49.95399 | -13.76934 | 37602 ft | 466 kts | 277° |
| 2026-05-08 05:11 | 49.95913 | -13.86986 | 37612 ft | 467 kts | 276° |
| 2026-05-08 05:11 | 49.96416 | -13.97023 | 37616 ft | 467 kts | 276° |
| 2026-05-08 05:12 | 49.96912 | -14.07090 | 37626 ft | 467 kts | 276° |
| 2026-05-08 05:12 | 49.97396 | -14.17132 | 37633 ft | 467 kts | 276° |
| 2026-05-08 05:13 | 49.97875 | -14.27199 | 37635 ft | 467 kts | 276° |
| 2026-05-08 05:13 | 49.98345 | -14.37274 | 37641 ft | 467 kts | 276° |
| 2026-05-08 05:14 | 49.98806 | -14.47345 | 37639 ft | 467 kts | 276° |
| 2026-05-08 05:14 | 49.99258 | -14.57423 | 37642 ft | 468 kts | 276° |
| 2026-05-08 05:15 | 49.99702 | -14.67500 | 37644 ft | 468 kts | 276° |
| 2026-05-08 05:15 | 50.00138 | -14.77590 | 37645 ft | 468 kts | 276° |
| 2026-05-08 05:16 | 50.00565 | -14.87686 | 37655 ft | 468 kts | 276° |
| 2026-05-08 05:16 | 50.00856 | -14.97724 | 37476 ft | 469 kts | 269° |
| 2026-05-08 05:17 | 49.99743 | -15.07609 | 37676 ft | 460 kts | 259° |
| 2026-05-08 05:17 | 49.98098 | -15.17203 | 37647 ft | 461 kts | 258° |
| 2026-05-08 05:18 | 49.96394 | -15.26808 | 37622 ft | 462 kts | 258° |
| 2026-05-08 05:18 | 49.94680 | -15.36414 | 37626 ft | 462 kts | 258° |
| 2026-05-08 05:19 | 49.92960 | -15.46034 | 37622 ft | 462 kts | 258° |
| 2026-05-08 05:19 | 49.91235 | -15.55643 | 37624 ft | 462 kts | 258° |
| 2026-05-08 05:20 | 49.89499 | -15.65255 | 37618 ft | 463 kts | 258° |
| 2026-05-08 05:20 | 49.87765 | -15.74800 | 37623 ft | 463 kts | 258° |
| 2026-05-08 05:21 | 49.86011 | -15.84406 | 37627 ft | 463 kts | 257° |
| 2026-05-08 05:21 | 49.84250 | -15.94003 | 37624 ft | 464 kts | 257° |
| 2026-05-08 05:22 | 49.82478 | -16.03614 | 37620 ft | 464 kts | 257° |
| 2026-05-08 05:22 | 49.80699 | -16.13211 | 37621 ft | 464 kts | 257° |
| 2026-05-08 05:23 | 49.78908 | -16.22824 | 37619 ft | 464 kts | 257° |
| 2026-05-08 05:23 | 49.77109 | -16.32416 | 37623 ft | 465 kts | 257° |
| 2026-05-08 05:24 | 49.75301 | -16.42018 | 37617 ft | 465 kts | 257° |
| 2026-05-08 05:24 | 49.73485 | -16.51623 | 37599 ft | 465 kts | 257° |
| 2026-05-08 05:25 | 49.71659 | -16.61221 | 37596 ft | 466 kts | 257° |
| 2026-05-08 05:25 | 49.69822 | -16.70825 | 37596 ft | 466 kts | 257° |
| 2026-05-08 05:26 | 49.67977 | -16.80426 | 37614 ft | 466 kts | 257° |
| 2026-05-08 05:26 | 49.66121 | -16.90027 | 37597 ft | 467 kts | 257° |
| 2026-05-08 05:27 | 49.64260 | -16.99614 | 37599 ft | 467 kts | 257° |
| 2026-05-08 05:27 | 49.62384 | -17.09221 | 37616 ft | 467 kts | 257° |
| 2026-05-08 05:28 | 49.60513 | -17.18753 | 37616 ft | 468 kts | 257° |
| 2026-05-08 05:28 | 49.58623 | -17.28348 | 37619 ft | 468 kts | 257° |
| 2026-05-08 05:29 | 49.56710 | -17.38011 | 37591 ft | 469 kts | 257° |
| 2026-05-08 05:29 | 49.54814 | -17.47545 | 37595 ft | 469 kts | 257° |
| 2026-05-08 05:30 | 49.52890 | -17.57161 | 37593 ft | 470 kts | 257° |
| 2026-05-08 05:30 | 49.50961 | -17.66763 | 37582 ft | 470 kts | 257° |
| 2026-05-08 05:31 | 49.49022 | -17.76367 | 37580 ft | 470 kts | 257° |
| 2026-05-08 05:31 | 49.47071 | -17.85982 | 37572 ft | 471 kts | 257° |
| 2026-05-08 05:32 | 49.45112 | -17.95592 | 37570 ft | 471 kts | 257° |
| 2026-05-08 05:32 | 49.43142 | -18.05204 | 37569 ft | 472 kts | 257° |
| 2026-05-08 05:33 | 49.41161 | -18.14819 | 37565 ft | 472 kts | 257° |
| 2026-05-08 05:33 | 49.39173 | -18.24431 | 37551 ft | 473 kts | 257° |
| 2026-05-08 05:34 | 49.37173 | -18.34045 | 37534 ft | 473 kts | 257° |
| 2026-05-08 05:34 | 49.35165 | -18.43660 | 37530 ft | 474 kts | 257° |
| 2026-05-08 05:35 | 49.33144 | -18.53288 | 37531 ft | 474 kts | 257° |
| 2026-05-08 05:35 | 49.31121 | -18.62886 | 37530 ft | 474 kts | 257° |